sensor_id;sensor_type;location;lat;lon;timestamp;pressure;altitude;pressure_sealevel;temperature;humidity
62164;BME280;48149;51.132;7.178;2022-07-10T00:00:12;99716.50;;;15.23;100.00
62164;BME280;48149;51.132;7.178;2022-07-10T00:02:41;99716.31;;;15.43;100.00
62164;BME280;48149;51.132;7.178;2022-07-10T00:05:22;99712.78;;;15.31;100.00
62164;BME280;48149;51.132;7.178;2022-07-10T00:08:00;99715.19;;;15.32;100.00
62164;BME280;48149;51.132;7.178;2022-07-10T00:10:40;99709.44;;;15.17;100.00
62164;BME280;48149;51.132;7.178;2022-07-10T00:13:17;99705.19;;;14.91;100.00
62164;BME280;48149;51.132;7.178;2022-07-10T00:15:54;99707.72;;;15.29;100.00
62164;BME280;48149;51.132;7.178;2022-07-10T00:18:20;99707.94;;;14.72;100.00
62164;BME280;48149;51.132;7.178;2022-07-10T00:21:11;99709.00;;;14.95;100.00
62164;BME280;48149;51.132;7.178;2022-07-10T00:23:57;99709.34;;;15.06;100.00
62164;BME280;48149;51.132;7.178;2022-07-10T00:26:22;99710.59;;;15.03;100.00
62164;BME280;48149;51.132;7.178;2022-07-10T00:28:55;99713.09;;;14.91;100.00
62164;BME280;48149;51.132;7.178;2022-07-10T00:31:38;99712.47;;;15.21;100.00
62164;BME280;48149;51.132;7.178;2022-07-10T00:34:15;99715.31;;;15.19;100.00
62164;BME280;48149;51.132;7.178;2022-07-10T00:37:06;99712.88;;;15.18;100.00
62164;BME280;48149;51.132;7.178;2022-07-10T00:39:45;99715.69;;;14.98;100.00
62164;BME280;48149;51.132;7.178;2022-07-10T00:42:21;99713.31;;;15.15;100.00
62164;BME280;48149;51.132;7.178;2022-07-10T00:44:48;99713.75;;;15.12;100.00
62164;BME280;48149;51.132;7.178;2022-07-10T00:47:13;99700.47;;;15.25;100.00
62164;BME280;48149;51.132;7.178;2022-07-10T00:49:42;99705.13;;;15.23;100.00
62164;BME280;48149;51.132;7.178;2022-07-10T00:52:23;99715.34;;;14.57;100.00
62164;BME280;48149;51.132;7.178;2022-07-10T00:54:57;99713.22;;;14.72;100.00
62164;BME280;48149;51.132;7.178;2022-07-10T00:57:28;99708.84;;;14.59;100.00
62164;BME280;48149;51.132;7.178;2022-07-10T00:59:55;99709.16;;;15.01;100.00
62164;BME280;48149;51.132;7.178;2022-07-10T01:02:44;99703.50;;;14.97;100.00
62164;BME280;48149;51.132;7.178;2022-07-10T01:05:30;99706.00;;;14.61;100.00
62164;BME280;48149;51.132;7.178;2022-07-10T01:08:37;99703.34;;;14.92;100.00
62164;BME280;48149;51.132;7.178;2022-07-10T01:11:06;99699.06;;;14.66;100.00
62164;BME280;48149;51.132;7.178;2022-07-10T01:13:35;99697.03;;;14.37;100.00
62164;BME280;48149;51.132;7.178;2022-07-10T01:16:39;99694.00;;;14.96;100.00
62164;BME280;48149;51.132;7.178;2022-07-10T01:19:13;99689.31;;;14.73;100.00
62164;BME280;48149;51.132;7.178;2022-07-10T01:21:40;99683.16;;;14.55;100.00
62164;BME280;48149;51.132;7.178;2022-07-10T01:24:16;99681.31;;;14.55;100.00
62164;BME280;48149;51.132;7.178;2022-07-10T01:26:44;99682.13;;;14.56;100.00
62164;BME280;48149;51.132;7.178;2022-07-10T01:29:15;99666.31;;;14.56;100.00
62164;BME280;48149;51.132;7.178;2022-07-10T01:32:09;99666.28;;;14.62;100.00
62164;BME280;48149;51.132;7.178;2022-07-10T01:34:35;99664.34;;;14.45;100.00
62164;BME280;48149;51.132;7.178;2022-07-10T01:37:03;99661.56;;;14.71;100.00
62164;BME280;48149;51.132;7.178;2022-07-10T01:39:34;99663.50;;;14.51;100.00
62164;BME280;48149;51.132;7.178;2022-07-10T01:42:05;99665.72;;;15.28;100.00
62164;BME280;48149;51.132;7.178;2022-07-10T01:44:36;99660.47;;;15.28;100.00
62164;BME280;48149;51.132;7.178;2022-07-10T01:47:04;99665.72;;;14.78;100.00
62164;BME280;48149;51.132;7.178;2022-07-10T01:49:38;99661.53;;;14.46;100.00
62164;BME280;48149;51.132;7.178;2022-07-10T01:52:08;99659.00;;;15.07;100.00
62164;BME280;48149;51.132;7.178;2022-07-10T01:54:42;99662.47;;;15.26;100.00
62164;BME280;48149;51.132;7.178;2022-07-10T01:57:10;99661.06;;;15.05;100.00
62164;BME280;48149;51.132;7.178;2022-07-10T01:59:44;99656.84;;;15.65;100.00
62164;BME280;48149;51.132;7.178;2022-07-10T02:02:19;99651.16;;;15.25;100.00
62164;BME280;48149;51.132;7.178;2022-07-10T02:04:47;99642.25;;;15.63;100.00
62164;BME280;48149;51.132;7.178;2022-07-10T02:07:15;99645.53;;;15.58;100.00
62164;BME280;48149;51.132;7.178;2022-07-10T02:09:41;99644.38;;;15.54;100.00
62164;BME280;48149;51.132;7.178;2022-07-10T02:12:11;99646.84;;;15.85;100.00
62164;BME280;48149;51.132;7.178;2022-07-10T02:14:40;99638.06;;;15.73;100.00
62164;BME280;48149;51.132;7.178;2022-07-10T02:17:07;99660.59;;;15.33;100.00
62164;BME280;48149;51.132;7.178;2022-07-10T02:19:33;99657.41;;;15.49;100.00
62164;BME280;48149;51.132;7.178;2022-07-10T02:22:00;99648.69;;;15.85;100.00
62164;BME280;48149;51.132;7.178;2022-07-10T02:24:28;99644.88;;;15.81;100.00
62164;BME280;48149;51.132;7.178;2022-07-10T02:26:54;99631.69;;;16.11;100.00
62164;BME280;48149;51.132;7.178;2022-07-10T02:29:21;99633.72;;;15.61;100.00
62164;BME280;48149;51.132;7.178;2022-07-10T02:31:49;99630.53;;;15.59;100.00
62164;BME280;48149;51.132;7.178;2022-07-10T02:34:14;99640.97;;;15.47;100.00
62164;BME280;48149;51.132;7.178;2022-07-10T02:36:40;99630.72;;;15.57;100.00
62164;BME280;48149;51.132;7.178;2022-07-10T02:39:06;99638.84;;;15.37;100.00
62164;BME280;48149;51.132;7.178;2022-07-10T02:41:36;99630.25;;;15.42;100.00
62164;BME280;48149;51.132;7.178;2022-07-10T02:44:21;99626.81;;;15.23;100.00
62164;BME280;48149;51.132;7.178;2022-07-10T02:46:47;99623.19;;;15.00;100.00
62164;BME280;48149;51.132;7.178;2022-07-10T02:49:20;99631.25;;;15.05;100.00
62164;BME280;48149;51.132;7.178;2022-07-10T02:51:46;99627.63;;;15.24;100.00
62164;BME280;48149;51.132;7.178;2022-07-10T02:54:22;99625.34;;;15.09;100.00
62164;BME280;48149;51.132;7.178;2022-07-10T02:56:50;99625.28;;;14.91;100.00
62164;BME280;48149;51.132;7.178;2022-07-10T02:59:27;99632.41;;;14.59;100.00
62164;BME280;48149;51.132;7.178;2022-07-10T03:01:56;99642.47;;;15.00;100.00
62164;BME280;48149;51.132;7.178;2022-07-10T03:04:41;99645.19;;;15.12;100.00
62164;BME280;48149;51.132;7.178;2022-07-10T03:07:11;99638.25;;;14.68;100.00
62164;BME280;48149;51.132;7.178;2022-07-10T03:09:39;99633.00;;;15.11;100.00
62164;BME280;48149;51.132;7.178;2022-07-10T03:12:05;99641.56;;;14.81;100.00
62164;BME280;48149;51.132;7.178;2022-07-10T03:14:30;99640.44;;;15.20;100.00
62164;BME280;48149;51.132;7.178;2022-07-10T03:16:55;99643.09;;;14.95;100.00
62164;BME280;48149;51.132;7.178;2022-07-10T03:19:22;99639.59;;;15.02;100.00
62164;BME280;48149;51.132;7.178;2022-07-10T03:21:50;99658.78;;;14.59;100.00
62164;BME280;48149;51.132;7.178;2022-07-10T03:24:15;99662.25;;;15.09;100.00
62164;BME280;48149;51.132;7.178;2022-07-10T03:26:45;99659.25;;;15.06;100.00
62164;BME280;48149;51.132;7.178;2022-07-10T03:29:14;99652.84;;;15.38;100.00
62164;BME280;48149;51.132;7.178;2022-07-10T03:31:42;99655.91;;;14.92;100.00
62164;BME280;48149;51.132;7.178;2022-07-10T03:34:17;99663.03;;;15.34;100.00
62164;BME280;48149;51.132;7.178;2022-07-10T03:37:04;99655.06;;;15.41;100.00
62164;BME280;48149;51.132;7.178;2022-07-10T03:39:42;99657.69;;;15.41;100.00
62164;BME280;48149;51.132;7.178;2022-07-10T03:42:10;99652.97;;;15.25;100.00
62164;BME280;48149;51.132;7.178;2022-07-10T03:44:36;99650.03;;;15.15;100.00
62164;BME280;48149;51.132;7.178;2022-07-10T03:47:05;99653.75;;;15.50;100.00
62164;BME280;48149;51.132;7.178;2022-07-10T03:49:59;99657.13;;;15.57;100.00
62164;BME280;48149;51.132;7.178;2022-07-10T03:52:27;99651.19;;;15.62;100.00
62164;BME280;48149;51.132;7.178;2022-07-10T03:54:55;99647.38;;;15.15;100.00
62164;BME280;48149;51.132;7.178;2022-07-10T03:57:28;99648.69;;;15.67;100.00
62164;BME280;48149;51.132;7.178;2022-07-10T04:00:23;99642.13;;;15.15;100.00
62164;BME280;48149;51.132;7.178;2022-07-10T04:03:01;99650.94;;;15.45;100.00
62164;BME280;48149;51.132;7.178;2022-07-10T04:05:31;99651.75;;;15.45;100.00
62164;BME280;48149;51.132;7.178;2022-07-10T04:08:06;99644.16;;;15.74;100.00
62164;BME280;48149;51.132;7.178;2022-07-10T04:10:42;99637.44;;;15.89;100.00
62164;BME280;48149;51.132;7.178;2022-07-10T04:13:15;99642.09;;;15.94;100.00
62164;BME280;48149;51.132;7.178;2022-07-10T04:15:55;99639.34;;;15.28;100.00
62164;BME280;48149;51.132;7.178;2022-07-10T04:18:27;99651.56;;;15.65;100.00
62164;BME280;48149;51.132;7.178;2022-07-10T04:20:58;99652.00;;;15.62;100.00
62164;BME280;48149;51.132;7.178;2022-07-10T04:23:29;99650.22;;;15.74;100.00
62164;BME280;48149;51.132;7.178;2022-07-10T04:28:48;99645.97;;;15.55;100.00
62164;BME280;48149;51.132;7.178;2022-07-10T04:31:24;99640.47;;;15.75;100.00
62164;BME280;48149;51.132;7.178;2022-07-10T04:33:53;99643.63;;;15.83;100.00
62164;BME280;48149;51.132;7.178;2022-07-10T04:36:22;99645.16;;;15.91;100.00
62164;BME280;48149;51.132;7.178;2022-07-10T04:38:54;99653.31;;;15.71;100.00
62164;BME280;48149;51.132;7.178;2022-07-10T04:41:52;99646.50;;;15.82;100.00
62164;BME280;48149;51.132;7.178;2022-07-10T04:44:26;99654.56;;;15.87;100.00
62164;BME280;48149;51.132;7.178;2022-07-10T04:46:54;99645.59;;;15.70;100.00
62164;BME280;48149;51.132;7.178;2022-07-10T04:49:35;99651.97;;;15.98;100.00
62164;BME280;48149;51.132;7.178;2022-07-10T04:52:11;99661.50;;;15.99;100.00
62164;BME280;48149;51.132;7.178;2022-07-10T04:54:43;99651.97;;;16.28;100.00
62164;BME280;48149;51.132;7.178;2022-07-10T04:59:57;99647.53;;;15.81;100.00
62164;BME280;48149;51.132;7.178;2022-07-10T05:02:38;99652.56;;;16.00;100.00
62164;BME280;48149;51.132;7.178;2022-07-10T05:05:04;99656.75;;;15.90;100.00
62164;BME280;48149;51.132;7.178;2022-07-10T05:07:40;99659.03;;;15.86;100.00
62164;BME280;48149;51.132;7.178;2022-07-10T05:10:06;99662.25;;;15.52;100.00
62164;BME280;48149;51.132;7.178;2022-07-10T05:12:45;99665.16;;;15.98;100.00
62164;BME280;48149;51.132;7.178;2022-07-10T05:15:15;99668.47;;;16.12;100.00
62164;BME280;48149;51.132;7.178;2022-07-10T05:17:41;99668.41;;;15.64;100.00
62164;BME280;48149;51.132;7.178;2022-07-10T05:20:10;99663.34;;;15.81;100.00
62164;BME280;48149;51.132;7.178;2022-07-10T05:22:39;99670.09;;;15.95;100.00
62164;BME280;48149;51.132;7.178;2022-07-10T05:25:21;99661.22;;;15.89;100.00
62164;BME280;48149;51.132;7.178;2022-07-10T05:27:52;99673.56;;;15.77;100.00
62164;BME280;48149;51.132;7.178;2022-07-10T05:30:18;99679.72;;;15.71;100.00
62164;BME280;48149;51.132;7.178;2022-07-10T05:32:44;99677.97;;;15.65;100.00
62164;BME280;48149;51.132;7.178;2022-07-10T05:35:13;99682.63;;;15.99;100.00
62164;BME280;48149;51.132;7.178;2022-07-10T05:37:50;99680.44;;;15.96;100.00
62164;BME280;48149;51.132;7.178;2022-07-10T05:40:20;99685.00;;;15.71;100.00
62164;BME280;48149;51.132;7.178;2022-07-10T05:42:49;99678.88;;;16.37;100.00
62164;BME280;48149;51.132;7.178;2022-07-10T05:45:28;99678.53;;;16.33;100.00
62164;BME280;48149;51.132;7.178;2022-07-10T05:47:56;99677.16;;;16.61;100.00
62164;BME280;48149;51.132;7.178;2022-07-10T05:50:45;99685.16;;;16.54;100.00
62164;BME280;48149;51.132;7.178;2022-07-10T05:53:32;99687.44;;;16.50;100.00
62164;BME280;48149;51.132;7.178;2022-07-10T05:56:19;99688.97;;;16.28;100.00
62164;BME280;48149;51.132;7.178;2022-07-10T05:58:45;99678.75;;;16.62;100.00
62164;BME280;48149;51.132;7.178;2022-07-10T06:01:17;99691.28;;;16.07;100.00
62164;BME280;48149;51.132;7.178;2022-07-10T06:03:43;99683.94;;;16.68;100.00
62164;BME280;48149;51.132;7.178;2022-07-10T06:06:17;99684.94;;;16.26;100.00
62164;BME280;48149;51.132;7.178;2022-07-10T06:08:56;99675.63;;;17.06;100.00
62164;BME280;48149;51.132;7.178;2022-07-10T06:11:27;99688.63;;;17.08;100.00
62164;BME280;48149;51.132;7.178;2022-07-10T06:14:00;99677.69;;;17.27;100.00
62164;BME280;48149;51.132;7.178;2022-07-10T06:16:36;99680.59;;;17.26;100.00
62164;BME280;48149;51.132;7.178;2022-07-10T06:19:20;99677.56;;;17.69;99.98
62164;BME280;48149;51.132;7.178;2022-07-10T06:21:51;99668.63;;;16.59;100.00
62164;BME280;48149;51.132;7.178;2022-07-10T06:24:52;99680.31;;;16.51;100.00
62164;BME280;48149;51.132;7.178;2022-07-10T06:27:21;99670.56;;;17.51;100.00
62164;BME280;48149;51.132;7.178;2022-07-10T06:29:47;99678.97;;;17.71;95.08
62164;BME280;48149;51.132;7.178;2022-07-10T06:32:18;99671.81;;;16.90;100.00
62164;BME280;48149;51.132;7.178;2022-07-10T06:34:48;99669.97;;;17.84;99.19
62164;BME280;48149;51.132;7.178;2022-07-10T06:37:17;99677.13;;;17.60;97.65
62164;BME280;48149;51.132;7.178;2022-07-10T06:39:46;99675.00;;;18.25;91.07
62164;BME280;48149;51.132;7.178;2022-07-10T06:42:24;99683.06;;;18.47;89.34
62164;BME280;48149;51.132;7.178;2022-07-10T06:45:10;99676.00;;;18.07;88.27
62164;BME280;48149;51.132;7.178;2022-07-10T06:48:06;99675.38;;;18.45;87.99
62164;BME280;48149;51.132;7.178;2022-07-10T06:50:35;99675.84;;;18.42;90.50
62164;BME280;48149;51.132;7.178;2022-07-10T06:55:57;99687.06;;;18.33;91.39
62164;BME280;48149;51.132;7.178;2022-07-10T06:58:32;99681.34;;;17.84;90.95
62164;BME280;48149;51.132;7.178;2022-07-10T07:01:00;99678.75;;;19.02;85.12
62164;BME280;48149;51.132;7.178;2022-07-10T07:03:31;99671.56;;;19.19;84.30
62164;BME280;48149;51.132;7.178;2022-07-10T07:05:57;99666.53;;;18.11;86.67
62164;BME280;48149;51.132;7.178;2022-07-10T07:08:23;99668.22;;;18.18;89.29
62164;BME280;48149;51.132;7.178;2022-07-10T07:10:54;99667.16;;;18.47;86.15
62164;BME280;48149;51.132;7.178;2022-07-10T07:13:32;99668.59;;;18.38;87.66
62164;BME280;48149;51.132;7.178;2022-07-10T07:16:10;99679.31;;;18.03;87.20
62164;BME280;48149;51.132;7.178;2022-07-10T07:18:39;99669.25;;;17.88;91.03
62164;BME280;48149;51.132;7.178;2022-07-10T07:21:21;99678.34;;;17.81;92.20
62164;BME280;48149;51.132;7.178;2022-07-10T07:24:05;99678.75;;;17.61;94.77
62164;BME280;48149;51.132;7.178;2022-07-10T07:29:15;99680.00;;;18.50;90.30
62164;BME280;48149;51.132;7.178;2022-07-10T07:31:46;99686.75;;;17.89;93.78
62164;BME280;48149;51.132;7.178;2022-07-10T07:34:17;99680.81;;;17.13;95.16
62164;BME280;48149;51.132;7.178;2022-07-10T07:36:54;99690.22;;;17.08;95.69
62164;BME280;48149;51.132;7.178;2022-07-10T07:39:20;99684.63;;;17.63;95.50
62164;BME280;48149;51.132;7.178;2022-07-10T07:41:50;99670.00;;;17.49;93.28
62164;BME280;48149;51.132;7.178;2022-07-10T07:44:42;99676.53;;;18.09;88.41
62164;BME280;48149;51.132;7.178;2022-07-10T07:47:08;99682.31;;;18.63;85.09
62164;BME280;48149;51.132;7.178;2022-07-10T07:49:49;99682.28;;;19.25;80.20
62164;BME280;48149;51.132;7.178;2022-07-10T07:52:18;99677.53;;;18.77;81.27
62164;BME280;48149;51.132;7.178;2022-07-10T07:54:53;99689.22;;;17.68;85.73
62164;BME280;48149;51.132;7.178;2022-07-10T07:57:38;99684.13;;;17.78;88.64
62164;BME280;48149;51.132;7.178;2022-07-10T08:00:08;99703.91;;;17.98;88.33
62164;BME280;48149;51.132;7.178;2022-07-10T08:03:03;99689.06;;;17.86;87.97
62164;BME280;48149;51.132;7.178;2022-07-10T08:05:55;99693.66;;;18.30;85.53
62164;BME280;48149;51.132;7.178;2022-07-10T08:11:23;99697.00;;;17.86;86.46
62164;BME280;48149;51.132;7.178;2022-07-10T08:14:17;99701.16;;;18.22;87.08
62164;BME280;48149;51.132;7.178;2022-07-10T08:16:53;99695.88;;;17.82;89.31
62164;BME280;48149;51.132;7.178;2022-07-10T08:19:20;99696.91;;;17.69;91.03
62164;BME280;48149;51.132;7.178;2022-07-10T08:22:08;99689.75;;;17.12;94.73
62164;BME280;48149;51.132;7.178;2022-07-10T08:24:48;99694.13;;;17.87;90.88
62164;BME280;48149;51.132;7.178;2022-07-10T08:27:51;99699.47;;;17.29;95.49
62164;BME280;48149;51.132;7.178;2022-07-10T08:30:30;99693.41;;;16.76;99.02
62164;BME280;48149;51.132;7.178;2022-07-10T08:33:03;99694.25;;;16.99;99.85
62164;BME280;48149;51.132;7.178;2022-07-10T08:35:36;99701.88;;;17.42;93.24
62164;BME280;48149;51.132;7.178;2022-07-10T08:44:22;99701.63;;;18.19;92.86
62164;BME280;48149;51.132;7.178;2022-07-10T08:46:56;99706.44;;;18.61;90.95
62164;BME280;48149;51.132;7.178;2022-07-10T08:49:52;99699.91;;;17.38;100.00
62164;BME280;48149;51.132;7.178;2022-07-10T08:52:39;99697.75;;;18.09;100.00
62164;BME280;48149;51.132;7.178;2022-07-10T08:58:12;99699.53;;;17.81;100.00
62164;BME280;48149;51.132;7.178;2022-07-10T09:00:49;99704.53;;;19.07;95.27
62164;BME280;48149;51.132;7.178;2022-07-10T09:03:15;99699.16;;;19.02;95.60
62164;BME280;48149;51.132;7.178;2022-07-10T09:05:46;99700.41;;;18.49;98.24
62164;BME280;48149;51.132;7.178;2022-07-10T09:08:29;99691.84;;;18.92;94.03
62164;BME280;48149;51.132;7.178;2022-07-10T09:11:27;99700.94;;;18.23;97.81
62164;BME280;48149;51.132;7.178;2022-07-10T09:14:19;99692.66;;;19.09;97.06
62164;BME280;48149;51.132;7.178;2022-07-10T09:17:03;99699.34;;;19.29;96.18
62164;BME280;48149;51.132;7.178;2022-07-10T09:20:00;99697.13;;;19.59;93.43
62164;BME280;48149;51.132;7.178;2022-07-10T09:23:21;99694.97;;;19.78;88.67
62164;BME280;48149;51.132;7.178;2022-07-10T09:25:52;99690.25;;;18.75;97.98
62164;BME280;48149;51.132;7.178;2022-07-10T09:28:33;99684.13;;;18.74;94.85
62164;BME280;48149;51.132;7.178;2022-07-10T09:34:59;99688.03;;;18.55;100.00
62164;BME280;48149;51.132;7.178;2022-07-10T09:37:47;99688.06;;;18.88;100.00
62164;BME280;48149;51.132;7.178;2022-07-10T09:40:29;99691.53;;;19.05;97.01
62164;BME280;48149;51.132;7.178;2022-07-10T09:43:20;99696.28;;;19.75;93.32
62164;BME280;48149;51.132;7.178;2022-07-10T09:49:37;99692.47;;;18.66;99.61
62164;BME280;48149;51.132;7.178;2022-07-10T09:52:05;99688.53;;;19.95;94.22
62164;BME280;48149;51.132;7.178;2022-07-10T09:57:32;99687.00;;;18.73;99.19
62164;BME280;48149;51.132;7.178;2022-07-10T10:06:11;99678.66;;;18.81;100.00
62164;BME280;48149;51.132;7.178;2022-07-10T10:08:56;99682.09;;;19.31;99.22
62164;BME280;48149;51.132;7.178;2022-07-10T10:20:36;99689.75;;;18.94;100.00
62164;BME280;48149;51.132;7.178;2022-07-10T10:23:27;99681.19;;;19.81;97.31
62164;BME280;48149;51.132;7.178;2022-07-10T10:29:05;99677.53;;;18.93;100.00
62164;BME280;48149;51.132;7.178;2022-07-10T10:32:02;99680.41;;;17.90;100.00
62164;BME280;48149;51.132;7.178;2022-07-10T10:34:58;99681.56;;;18.23;100.00
62164;BME280;48149;51.132;7.178;2022-07-10T10:37:38;99674.09;;;18.48;100.00
62164;BME280;48149;51.132;7.178;2022-07-10T10:45:40;99678.63;;;18.36;100.00
62164;BME280;48149;51.132;7.178;2022-07-10T10:48:21;99671.00;;;18.68;100.00
62164;BME280;48149;51.132;7.178;2022-07-10T10:50:53;99669.41;;;18.83;100.00
62164;BME280;48149;51.132;7.178;2022-07-10T10:53:41;99663.78;;;18.96;100.00
62164;BME280;48149;51.132;7.178;2022-07-10T10:59:43;99661.59;;;18.60;100.00
62164;BME280;48149;51.132;7.178;2022-07-10T11:02:38;99664.81;;;18.79;100.00
62164;BME280;48149;51.132;7.178;2022-07-10T11:08:39;99664.34;;;19.15;100.00
62164;BME280;48149;51.132;7.178;2022-07-10T11:15:03;99659.84;;;18.66;100.00
62164;BME280;48149;51.132;7.178;2022-07-10T11:17:47;99671.44;;;19.09;100.00
62164;BME280;48149;51.132;7.178;2022-07-10T11:20:42;99667.22;;;19.47;100.00
62164;BME280;48149;51.132;7.178;2022-07-10T11:23:43;99666.19;;;19.69;100.00
62164;BME280;48149;51.132;7.178;2022-07-10T11:26:49;99653.53;;;20.25;96.21
62164;BME280;48149;51.132;7.178;2022-07-10T11:29:57;99651.00;;;20.35;97.53
62164;BME280;48149;51.132;7.178;2022-07-10T11:32:54;99654.63;;;20.02;96.73
62164;BME280;48149;51.132;7.178;2022-07-10T11:35:58;99651.91;;;19.97;93.87
62164;BME280;48149;51.132;7.178;2022-07-10T11:39:07;99652.13;;;20.17;96.53
62164;BME280;48149;51.132;7.178;2022-07-10T11:41:48;99658.38;;;19.25;100.00
62164;BME280;48149;51.132;7.178;2022-07-10T11:44:30;99650.84;;;18.50;100.00
62164;BME280;48149;51.132;7.178;2022-07-10T11:53:28;99654.09;;;19.24;100.00
62164;BME280;48149;51.132;7.178;2022-07-10T11:56:24;99650.09;;;19.21;100.00
62164;BME280;48149;51.132;7.178;2022-07-10T11:59:09;99643.38;;;19.95;100.00
62164;BME280;48149;51.132;7.178;2022-07-10T12:02:01;99647.53;;;20.35;100.00
62164;BME280;48149;51.132;7.178;2022-07-10T12:04:34;99634.88;;;21.10;100.00
62164;BME280;48149;51.132;7.178;2022-07-10T12:07:52;99637.72;;;20.67;97.28
62164;BME280;48149;51.132;7.178;2022-07-10T12:11:10;99651.91;;;19.54;100.00
62164;BME280;48149;51.132;7.178;2022-07-10T12:23:54;99651.47;;;18.57;100.00
62164;BME280;48149;51.132;7.178;2022-07-10T12:27:09;99652.53;;;19.06;100.00
62164;BME280;48149;51.132;7.178;2022-07-10T12:29:44;99661.31;;;19.06;100.00
62164;BME280;48149;51.132;7.178;2022-07-10T12:32:46;99653.22;;;18.51;100.00
62164;BME280;48149;51.132;7.178;2022-07-10T12:35:23;99664.19;;;18.72;100.00
62164;BME280;48149;51.132;7.178;2022-07-10T12:38:15;99656.53;;;18.92;100.00
62164;BME280;48149;51.132;7.178;2022-07-10T12:44:10;99647.28;;;19.66;100.00
62164;BME280;48149;51.132;7.178;2022-07-10T12:46:42;99644.28;;;20.28;100.00
62164;BME280;48149;51.132;7.178;2022-07-10T12:49:34;99637.28;;;20.21;100.00
62164;BME280;48149;51.132;7.178;2022-07-10T12:59:00;99652.25;;;20.28;100.00
62164;BME280;48149;51.132;7.178;2022-07-10T13:01:45;99651.53;;;20.10;100.00
62164;BME280;48149;51.132;7.178;2022-07-10T13:07:17;99649.72;;;19.12;100.00
62164;BME280;48149;51.132;7.178;2022-07-10T13:10:23;99646.78;;;19.47;100.00
62164;BME280;48149;51.132;7.178;2022-07-10T13:16:16;99648.00;;;19.61;100.00
62164;BME280;48149;51.132;7.178;2022-07-10T13:22:05;99650.75;;;19.66;100.00
62164;BME280;48149;51.132;7.178;2022-07-10T13:24:50;99648.41;;;19.32;100.00
62164;BME280;48149;51.132;7.178;2022-07-10T13:28:14;99651.28;;;19.13;100.00
62164;BME280;48149;51.132;7.178;2022-07-10T13:30:34;99643.31;;;18.75;100.00
62164;BME280;48149;51.132;7.178;2022-07-10T13:36:01;99638.19;;;18.57;100.00
62164;BME280;48149;51.132;7.178;2022-07-10T13:38:58;99636.84;;;19.04;100.00
62164;BME280;48149;51.132;7.178;2022-07-10T13:41:49;99636.78;;;18.99;100.00
62164;BME280;48149;51.132;7.178;2022-07-10T13:44:30;99638.91;;;19.57;100.00
62164;BME280;48149;51.132;7.178;2022-07-10T13:47:07;99632.59;;;19.03;100.00
62164;BME280;48149;51.132;7.178;2022-07-10T13:49:54;99625.97;;;20.58;100.00
62164;BME280;48149;51.132;7.178;2022-07-10T13:52:23;99632.09;;;20.32;100.00
62164;BME280;48149;51.132;7.178;2022-07-10T13:55:04;99615.16;;;21.58;100.00
62164;BME280;48149;51.132;7.178;2022-07-10T13:57:53;99615.34;;;23.30;100.00
62164;BME280;48149;51.132;7.178;2022-07-10T14:03:34;99602.47;;;24.06;90.53
62164;BME280;48149;51.132;7.178;2022-07-10T14:06:11;99619.63;;;23.26;96.90
62164;BME280;48149;51.132;7.178;2022-07-10T14:09:44;99616.47;;;20.72;100.00
62164;BME280;48149;51.132;7.178;2022-07-10T14:12:39;99620.41;;;21.01;100.00
62164;BME280;48149;51.132;7.178;2022-07-10T14:15:17;99623.72;;;20.77;100.00
62164;BME280;48149;51.132;7.178;2022-07-10T14:18:15;99615.38;;;21.47;100.00
62164;BME280;48149;51.132;7.178;2022-07-10T14:21:13;99625.72;;;19.84;100.00
62164;BME280;48149;51.132;7.178;2022-07-10T14:24:25;99620.91;;;20.30;100.00
62164;BME280;48149;51.132;7.178;2022-07-10T14:27:21;99616.22;;;20.42;100.00
62164;BME280;48149;51.132;7.178;2022-07-10T14:33:42;99614.28;;;20.96;100.00
62164;BME280;48149;51.132;7.178;2022-07-10T14:36:51;99612.94;;;20.30;100.00
62164;BME280;48149;51.132;7.178;2022-07-10T14:39:30;99612.38;;;20.59;100.00
62164;BME280;48149;51.132;7.178;2022-07-10T14:42:12;99604.00;;;20.46;100.00
62164;BME280;48149;51.132;7.178;2022-07-10T14:48:24;99607.22;;;20.80;100.00
62164;BME280;48149;51.132;7.178;2022-07-10T14:51:04;99611.22;;;20.82;100.00
62164;BME280;48149;51.132;7.178;2022-07-10T14:53:33;99605.56;;;21.62;100.00
62164;BME280;48149;51.132;7.178;2022-07-10T14:56:07;99602.34;;;21.50;100.00
62164;BME280;48149;51.132;7.178;2022-07-10T14:58:50;99601.25;;;22.89;100.00
62164;BME280;48149;51.132;7.178;2022-07-10T15:01:47;99600.22;;;22.70;97.17
62164;BME280;48149;51.132;7.178;2022-07-10T15:04:36;99604.97;;;23.13;96.35
62164;BME280;48149;51.132;7.178;2022-07-10T15:07:35;99601.53;;;22.72;100.00
62164;BME280;48149;51.132;7.178;2022-07-10T15:11:01;99594.84;;;22.65;100.00
62164;BME280;48149;51.132;7.178;2022-07-10T15:17:21;99596.69;;;21.37;100.00
62164;BME280;48149;51.132;7.178;2022-07-10T15:20:01;99595.69;;;20.69;100.00
62164;BME280;48149;51.132;7.178;2022-07-10T15:22:35;99603.66;;;21.06;100.00
62164;BME280;48149;51.132;7.178;2022-07-10T15:25:24;99597.50;;;21.00;100.00
62164;BME280;48149;51.132;7.178;2022-07-10T15:28:09;99594.75;;;20.85;100.00
62164;BME280;48149;51.132;7.178;2022-07-10T15:30:40;99591.88;;;21.34;100.00
62164;BME280;48149;51.132;7.178;2022-07-10T15:33:10;99587.97;;;21.56;100.00
62164;BME280;48149;51.132;7.178;2022-07-10T15:35:43;99589.69;;;21.20;100.00
62164;BME280;48149;51.132;7.178;2022-07-10T15:38:25;99580.13;;;21.92;100.00
62164;BME280;48149;51.132;7.178;2022-07-10T15:40:56;99575.09;;;22.20;100.00
62164;BME280;48149;51.132;7.178;2022-07-10T15:43:26;99572.41;;;22.05;100.00
62164;BME280;48149;51.132;7.178;2022-07-10T15:46:01;99566.03;;;22.97;98.50
62164;BME280;48149;51.132;7.178;2022-07-10T15:48:48;99561.81;;;22.66;99.66
62164;BME280;48149;51.132;7.178;2022-07-10T15:51:21;99561.91;;;23.30;99.56